createdAt,value
2022-11-30T15:53:28.110Z,7.93
2022-11-30T15:55:57.448Z,10.73
2022-11-30T15:58:28.670Z,9.50
2022-11-30T16:01:06.079Z,9.55
2022-11-30T16:03:35.808Z,9.07
2022-11-30T16:06:05.860Z,8.05
2022-11-30T16:08:35.199Z,8.18
2022-11-30T16:11:08.038Z,10.10
2022-11-30T16:13:36.245Z,8.43
2022-11-30T16:16:11.827Z,9.52
2022-11-30T16:18:39.767Z,10.73
2022-11-30T16:21:07.800Z,10.43
2022-11-30T16:23:37.061Z,10.23
2022-11-30T16:26:07.937Z,7.72
2022-11-30T16:28:41.738Z,10.30
2022-11-30T16:31:17.192Z,9.82
2022-11-30T16:33:45.726Z,9.93
2022-11-30T16:36:16.993Z,11.15
2022-11-30T16:38:48.653Z,12.75
2022-11-30T16:41:19.149Z,11.35
2022-11-30T16:43:48.381Z,10.98
2022-11-30T16:46:18.477Z,10.38
2022-11-30T16:48:47.103Z,13.55
2022-11-30T16:51:20.459Z,13.75
2022-11-30T16:53:49.875Z,12.05
2022-11-30T16:56:17.914Z,14.65
2022-11-30T16:58:46.067Z,11.32
2022-11-30T17:01:19.099Z,10.20
2022-11-30T17:03:49.624Z,12.80
2022-11-30T17:06:20.278Z,11.00
2022-11-30T17:08:50.680Z,16.65
2022-11-30T17:11:22.291Z,12.30
2022-11-30T17:13:50.214Z,11.60
2022-11-30T17:16:18.162Z,11.00
2022-11-30T17:18:46.142Z,12.82
2022-11-30T17:21:20.232Z,12.88
2022-11-30T17:23:49.543Z,11.95
2022-11-30T17:26:17.374Z,11.32
2022-11-30T17:28:45.209Z,9.82
2022-11-30T17:31:13.757Z,11.25
2022-11-30T17:33:47.791Z,11.23
2022-11-30T17:36:17.068Z,11.80
2022-11-30T17:38:45.283Z,12.98
2022-11-30T17:41:19.172Z,9.75
2022-11-30T17:43:48.133Z,12.82
2022-11-30T17:46:19.203Z,9.18
2022-11-30T17:48:47.413Z,10.05
2022-11-30T17:51:15.283Z,10.65
2022-11-30T17:53:44.203Z,10.95
2022-11-30T17:56:16.122Z,8.65
2022-11-30T17:58:45.366Z,7.20
2022-11-30T18:01:17.444Z,9.80
2022-11-30T18:03:46.026Z,6.85
2022-11-30T18:06:14.195Z,6.40
2022-11-30T18:08:42.447Z,6.38
2022-11-30T18:11:11.278Z,5.32
2022-11-30T18:13:41.467Z,6.28
2022-11-30T18:16:11.679Z,6.03
2022-11-30T18:18:44.387Z,5.07
2022-11-30T18:21:16.539Z,5.68
2022-11-30T18:23:44.358Z,6.70
2022-11-30T18:26:13.884Z,6.40
2022-11-30T18:28:43.452Z,6.80
2022-11-30T18:31:11.874Z,6.57
2022-11-30T18:33:39.985Z,6.72
2022-11-30T18:36:08.072Z,6.80
2022-11-30T18:38:38.490Z,6.28
2022-11-30T18:41:07.393Z,7.70
2022-11-30T18:43:35.370Z,8.18
2022-11-30T18:46:05.844Z,9.02
2022-11-30T18:48:33.762Z,7.55
2022-11-30T18:51:09.169Z,7.90
2022-11-30T18:53:37.059Z,10.48
2022-11-30T18:56:13.038Z,9.10
2022-11-30T18:58:41.187Z,11.82
2022-11-30T19:01:13.389Z,9.95
2022-11-30T19:03:42.011Z,9.48
2022-11-30T19:06:11.749Z,8.77
2022-11-30T19:08:40.922Z,10.38
2022-11-30T19:11:10.514Z,10.35
2022-11-30T19:13:38.508Z,9.10
2022-11-30T19:16:08.189Z,17.17
2022-11-30T19:18:37.813Z,11.90
2022-11-30T19:21:09.249Z,10.23
2022-11-30T19:23:37.615Z,9.63
2022-11-30T19:26:06.667Z,9.55
2022-11-30T19:28:36.434Z,11.00
2022-11-30T19:31:08.459Z,11.63
2022-11-30T19:33:38.950Z,11.60
2022-11-30T19:36:11.108Z,9.48
2022-11-30T19:38:39.005Z,7.70
2022-11-30T19:41:07.611Z,10.05
2022-11-30T19:43:35.473Z,8.70
2022-11-30T19:46:07.600Z,7.18
2022-11-30T19:48:37.310Z,7.70
2022-11-30T19:51:06.779Z,9.02
2022-11-30T19:53:34.689Z,9.63
2022-11-30T19:56:06.173Z,11.07
2022-11-30T19:58:34.256Z,11.80
2022-11-30T20:01:02.535Z,10.90
2022-11-30T20:03:33.210Z,14.75
2022-11-30T20:06:02.686Z,11.50
2022-11-30T20:08:30.899Z,14.30
2022-11-30T20:10:58.670Z,12.32
2022-11-30T20:13:26.613Z,14.20
2022-11-30T20:15:54.669Z,12.52
2022-11-30T20:18:22.470Z,12.82
2022-11-30T20:20:50.284Z,16.17
2022-11-30T20:23:19.755Z,14.23
2022-11-30T20:25:47.696Z,10.68
2022-11-30T20:28:15.534Z,14.00
2022-11-30T20:30:43.801Z,14.07
2022-11-30T20:33:11.705Z,11.30
2022-11-30T20:35:39.511Z,12.65
2022-11-30T20:38:07.261Z,11.15
2022-11-30T20:40:39.737Z,16.10
2022-11-30T20:43:07.605Z,11.43
2022-11-30T20:45:35.406Z,13.88
2022-11-30T20:48:03.350Z,14.07
2022-11-30T20:50:31.314Z,10.80
2022-11-30T20:52:59.105Z,11.00
2022-11-30T20:55:27.141Z,11.85
2022-11-30T20:57:56.594Z,13.85
2022-11-30T21:00:24.996Z,9.30
2022-11-30T21:02:52.853Z,9.25
2022-11-30T21:05:20.656Z,8.50
2022-11-30T21:07:49.120Z,8.43
2022-11-30T21:10:17.265Z,5.68
2022-11-30T21:12:45.137Z,6.60
2022-11-30T21:15:14.218Z,8.80
2022-11-30T21:17:42.075Z,7.07
